Terminal Aerodrome Forecast
Issued by NWS

Home | Current Version | Previous Version | Text Only | Print | Product List | Glossary On
Versions: 1 2 3 4 5 6 7 8 9 10 11 12 13 14 15 16 17 18 19 20 21 22 23 24 25 26 27 28 29 30 31 32 33
000
FTAK31 PANC 180529
TAFAAQ
TAF
PAAQ 180529Z 1806/1906 14012KT P6SM VCSH OVC060
      TEMPO 1806/1810 15012G22KT
     FM181000 09008KT P6SM -RA OVC060
     FM182200 13008KT P6SM VCSH BKN070=

USA.gov is the U.S. government's official web portal to all federal, state and local government web resources and services.